Aeroporto :







RITROVATECI SU...

 
LOGIN :

Iscrizione | Disclaimer

   EN    FR    IT 

 









Sommario :    VFR   VFR Marginale   IFR   IFR Intensivo   IFR Molto Intensivo
Visibilità : 
Base nubi : 
>= 8 km
>= 3000ft
5 / 8 km
1000 / 3000 ft
1500m / 5 km
500 / 1000 ft
800 / 1500m
200 / 500 ft
< 800m
< 200 ft
Simboli :   Temporali  Nebbia  Neve Forte  Precipitazioni Forti  Vento > 20 kt






- Altitudine del aeroporto : 9 ft
- Codice IATA : SJU


TJSJ - Luis Munoz Marin Int.

ULTIMO METAR :
  • 151756Z 06015KT 10SM SCT025 SCT035 32/23 A2996 RMK AO2 SLP145 60001 T03170228 10317 20283 58014

METARs OBSOLETI :
  • 151656Z 07012G19KT 10SM SCT025 SCT035 31/23 A2998 RMK AO2 SLP152 T03110233
  • 151556Z 06014G18KT 10SM FEW022 SCT035 31/23 A2999 RMK AO2 SLP155 T03110233

TAF TJSJ
Valido dal 15 a 18 ore il 16 a 18 ore UTC


151739Z 1518/1618 06015KT P6SM VCSH FEW024 SCT050
FM152330 07006KT P6SM VCSH SCT025 SCT050 SCT080
FM161400 06012KT P6SM FEW035 SCT050
FIR TJZS / America del Nord



MetMap, La meteo Aeronautica in un colpo d'occhio ! - Copyright ORBIFLY Dicembre 2007 - Disclaimer

ORBIFLY MET'MAP TEAM :

Programmazione e sviluppo : Alexandra Zaïnal
Concezione : Baudouin d'Aumeries
Aiuto per la programmazione : Marc-Olivier Méhu
Supporto tecnico e logistico : Manuel Goepfert
Aiuto per la traduzione : Arnaldo La Scala

Contatto : metmap@orbifly.com




FONTI E CREDITI :

   NOAA